sensor_id;sensor_type;location;lat;lon;timestamp;pressure;altitude;pressure_sealevel;temperature;humidity
73870;BME280;64924;42.140;24.762;2023-06-19T00:01:55;99425.38;;;23.74;48.93
73870;BME280;64924;42.140;24.762;2023-06-19T00:04:21;99428.38;;;23.78;48.77
73870;BME280;64924;42.140;24.762;2023-06-19T00:06:46;99433.06;;;23.82;48.63
73870;BME280;64924;42.140;24.762;2023-06-19T00:09:13;99410.66;;;23.74;48.69
73870;BME280;64924;42.140;24.762;2023-06-19T00:14:04;99441.41;;;23.77;48.80
73870;BME280;64924;42.140;24.762;2023-06-19T00:16:31;99411.28;;;23.65;49.02
73870;BME280;64924;42.140;24.762;2023-06-19T00:18:57;99444.00;;;23.69;48.82
73870;BME280;64924;42.140;24.762;2023-06-19T00:21:23;99439.28;;;23.69;49.07
73870;BME280;64924;42.140;24.762;2023-06-19T00:23:52;99437.03;;;23.71;49.12
73870;BME280;64924;42.140;24.762;2023-06-19T00:26:18;99450.56;;;23.78;48.77
73870;BME280;64924;42.140;24.762;2023-06-19T00:28:48;99446.78;;;23.63;49.00
73870;BME280;64924;42.140;24.762;2023-06-19T00:31:14;99442.03;;;23.69;49.07
73870;BME280;64924;42.140;24.762;2023-06-19T00:33:40;99440.09;;;23.70;48.96
73870;BME280;64924;42.140;24.762;2023-06-19T00:36:10;99454.78;;;23.75;48.91
73870;BME280;64924;42.140;24.762;2023-06-19T00:38:36;99431.56;;;23.61;48.88
73870;BME280;64924;42.140;24.762;2023-06-19T00:41:03;99427.16;;;23.55;48.54
73870;BME280;64924;42.140;24.762;2023-06-19T00:43:29;99431.88;;;23.54;48.81
73870;BME280;64924;42.140;24.762;2023-06-19T00:45:59;99408.09;;;23.38;48.63
73870;BME280;64924;42.140;24.762;2023-06-19T00:48:27;99394.03;;;23.24;48.73
73870;BME280;64924;42.140;24.762;2023-06-19T00:50:53;99449.06;;;23.56;48.74
73870;BME280;64924;42.140;24.762;2023-06-19T00:53:19;99441.56;;;23.52;48.68
73870;BME280;64924;42.140;24.762;2023-06-19T00:55:46;99440.47;;;23.53;48.82
73870;BME280;64924;42.140;24.762;2023-06-19T00:58:13;99433.28;;;23.42;48.78
73870;BME280;64924;42.140;24.762;2023-06-19T01:00:38;99443.03;;;23.39;48.71
73870;BME280;64924;42.140;24.762;2023-06-19T01:03:04;99448.88;;;23.32;49.19
73870;BME280;64924;42.140;24.762;2023-06-19T01:05:30;99431.19;;;23.23;49.21
73870;BME280;64924;42.140;24.762;2023-06-19T01:08:02;99402.66;;;23.18;48.87
73870;BME280;64924;42.140;24.762;2023-06-19T01:10:38;99409.00;;;23.23;48.71
73870;BME280;64924;42.140;24.762;2023-06-19T01:13:09;99437.47;;;23.39;48.87
73870;BME280;64924;42.140;24.762;2023-06-19T01:15:36;99440.28;;;23.34;48.98
73870;BME280;64924;42.140;24.762;2023-06-19T01:18:04;99428.97;;;23.20;48.69
73870;BME280;64924;42.140;24.762;2023-06-19T01:20:29;99414.59;;;23.13;49.07
73870;BME280;64924;42.140;24.762;2023-06-19T01:22:56;99429.81;;;23.21;49.02
73870;BME280;64924;42.140;24.762;2023-06-19T01:25:23;99421.78;;;23.14;48.92
73870;BME280;64924;42.140;24.762;2023-06-19T01:27:49;99436.72;;;23.23;48.81
73870;BME280;64924;42.140;24.762;2023-06-19T01:30:16;99391.09;;;23.00;48.80
73870;BME280;64924;42.140;24.762;2023-06-19T01:35:35;99401.00;;;23.12;48.74
73870;BME280;64924;42.140;24.762;2023-06-19T01:38:02;99439.78;;;23.22;48.99
73870;BME280;64924;42.140;24.762;2023-06-19T01:40:29;99418.72;;;23.16;48.67
73870;BME280;64924;42.140;24.762;2023-06-19T01:42:58;99431.47;;;23.17;48.73
73870;BME280;64924;42.140;24.762;2023-06-19T01:45:30;99432.03;;;23.14;48.87
73870;BME280;64924;42.140;24.762;2023-06-19T01:47:56;99430.63;;;23.21;48.67
73870;BME280;64924;42.140;24.762;2023-06-19T01:50:22;99397.16;;;23.02;48.56
73870;BME280;64924;42.140;24.762;2023-06-19T01:52:49;99430.34;;;23.23;48.87
73870;BME280;64924;42.140;24.762;2023-06-19T01:55:15;99397.44;;;23.06;48.27
73870;BME280;64924;42.140;24.762;2023-06-19T01:57:41;99420.38;;;23.17;48.48
73870;BME280;64924;42.140;24.762;2023-06-19T02:00:06;99426.75;;;23.22;48.39
73870;BME280;64924;42.140;24.762;2023-06-19T02:02:38;99424.50;;;23.29;48.73
73870;BME280;64924;42.140;24.762;2023-06-19T02:05:04;99424.81;;;23.18;48.22
73870;BME280;64924;42.140;24.762;2023-06-19T02:07:30;99416.53;;;23.13;48.11
73870;BME280;64924;42.140;24.762;2023-06-19T02:09:56;99356.81;;;22.71;48.66
73870;BME280;64924;42.140;24.762;2023-06-19T02:12:22;99433.16;;;23.08;48.79
73870;BME280;64924;42.140;24.762;2023-06-19T02:14:47;99428.47;;;23.08;48.67
73870;BME280;64924;42.140;24.762;2023-06-19T02:17:12;99427.59;;;23.13;48.33
73870;BME280;64924;42.140;24.762;2023-06-19T02:19:38;99436.75;;;23.18;48.18
73870;BME280;64924;42.140;24.762;2023-06-19T02:22:04;99427.09;;;23.06;48.02
73870;BME280;64924;42.140;24.762;2023-06-19T02:24:30;99404.16;;;22.95;48.10
73870;BME280;64924;42.140;24.762;2023-06-19T02:26:56;99437.59;;;23.14;48.09
73870;BME280;64924;42.140;24.762;2023-06-19T02:29:22;99453.13;;;23.10;48.24
73870;BME280;64924;42.140;24.762;2023-06-19T02:31:47;99452.00;;;23.11;48.33
73870;BME280;64924;42.140;24.762;2023-06-19T02:34:13;99446.47;;;23.11;48.05
73870;BME280;64924;42.140;24.762;2023-06-19T02:36:39;99441.72;;;23.16;47.92
73870;BME280;64924;42.140;24.762;2023-06-19T02:39:05;99437.03;;;23.17;47.78
73870;BME280;64924;42.140;24.762;2023-06-19T02:41:33;99437.84;;;23.17;47.64
73870;BME280;64924;42.140;24.762;2023-06-19T02:43:59;99442.53;;;23.22;47.46
73870;BME280;64924;42.140;24.762;2023-06-19T02:46:24;99439.50;;;23.18;47.51
73870;BME280;64924;42.140;24.762;2023-06-19T02:48:50;99447.78;;;23.28;47.27
73870;BME280;64924;42.140;24.762;2023-06-19T02:51:15;99417.38;;;23.08;46.98
73870;BME280;64924;42.140;24.762;2023-06-19T02:53:41;99463.03;;;23.31;47.01
73870;BME280;64924;42.140;24.762;2023-06-19T02:56:07;99450.53;;;23.39;46.93
73870;BME280;64924;42.140;24.762;2023-06-19T02:58:33;99456.56;;;23.41;46.77
73870;BME280;64924;42.140;24.762;2023-06-19T03:00:59;99408.44;;;23.26;46.46
73870;BME280;64924;42.140;24.762;2023-06-19T03:03:25;99455.69;;;23.50;46.64
73870;BME280;64924;42.140;24.762;2023-06-19T03:05:51;99447.69;;;23.54;46.34
73870;BME280;64924;42.140;24.762;2023-06-19T03:08:16;99451.50;;;23.63;46.42
73870;BME280;64924;42.140;24.762;2023-06-19T03:10:42;99424.91;;;23.57;46.14
73870;BME280;64924;42.140;24.762;2023-06-19T03:13:07;99451.72;;;24.11;45.29
73870;BME280;64924;42.140;24.762;2023-06-19T03:15:32;99415.78;;;24.24;44.81
73870;BME280;64924;42.140;24.762;2023-06-19T03:17:58;99444.41;;;24.83;44.00
73870;BME280;64924;42.140;24.762;2023-06-19T03:20:23;99408.13;;;24.93;43.13
73870;BME280;64924;42.140;24.762;2023-06-19T03:22:49;99450.91;;;25.63;42.26
73870;BME280;64924;42.140;24.762;2023-06-19T03:25:15;99452.38;;;25.98;41.40
73870;BME280;64924;42.140;24.762;2023-06-19T03:27:40;99418.16;;;26.12;40.83
73870;BME280;64924;42.140;24.762;2023-06-19T03:30:06;99458.91;;;26.86;39.79
73870;BME280;64924;42.140;24.762;2023-06-19T03:32:33;99452.13;;;27.20;38.92
73870;BME280;64924;42.140;24.762;2023-06-19T03:34:58;99457.78;;;27.56;38.13
73870;BME280;64924;42.140;24.762;2023-06-19T03:37:24;99445.06;;;28.00;37.28
73870;BME280;64924;42.140;24.762;2023-06-19T03:39:50;99415.69;;;28.02;37.09
73870;BME280;64924;42.140;24.762;2023-06-19T03:42:15;99446.03;;;28.17;37.04
73870;BME280;64924;42.140;24.762;2023-06-19T03:44:40;99389.22;;;28.22;36.44
73870;BME280;64924;42.140;24.762;2023-06-19T03:47:06;99437.84;;;29.05;35.40
73870;BME280;64924;42.140;24.762;2023-06-19T03:49:32;99452.69;;;29.63;34.93
73870;BME280;64924;42.140;24.762;2023-06-19T03:51:57;99415.47;;;29.79;33.86
73870;BME280;64924;42.140;24.762;2023-06-19T03:54:23;99445.97;;;30.33;33.07
73870;BME280;64924;42.140;24.762;2023-06-19T03:56:48;99440.47;;;30.71;32.66
73870;BME280;64924;42.140;24.762;2023-06-19T03:59:14;99405.03;;;30.96;32.02
73870;BME280;64924;42.140;24.762;2023-06-19T04:01:39;99441.16;;;31.65;30.73
73870;BME280;64924;42.140;24.762;2023-06-19T04:04:05;99439.22;;;32.07;30.69
73870;BME280;64924;42.140;24.762;2023-06-19T04:06:31;99437.78;;;32.54;29.42
73870;BME280;64924;42.140;24.762;2023-06-19T04:08:57;99435.53;;;33.17;28.63
73870;BME280;64924;42.140;24.762;2023-06-19T04:11:22;99433.41;;;33.75;27.84
73870;BME280;64924;42.140;24.762;2023-06-19T04:13:48;99422.06;;;34.12;27.33
73870;BME280;64924;42.140;24.762;2023-06-19T04:16:13;99403.31;;;34.19;27.02
73870;BME280;64924;42.140;24.762;2023-06-19T04:18:39;99430.72;;;35.06;26.21
73870;BME280;64924;42.140;24.762;2023-06-19T04:21:04;99431.78;;;35.49;25.43
73870;BME280;64924;42.140;24.762;2023-06-19T04:23:30;99420.44;;;36.00;25.10
73870;BME280;64924;42.140;24.762;2023-06-19T04:25:55;99423.25;;;36.19;24.45
73870;BME280;64924;42.140;24.762;2023-06-19T04:28:21;99418.53;;;36.46;24.14
73870;BME280;64924;42.140;24.762;2023-06-19T04:30:46;99417.28;;;36.43;24.37
73870;BME280;64924;42.140;24.762;2023-06-19T04:33:12;99426.53;;;36.82;24.16
73870;BME280;64924;42.140;24.762;2023-06-19T04:35:37;99432.00;;;37.17;23.54
73870;BME280;64924;42.140;24.762;2023-06-19T04:38:08;99391.50;;;37.40;22.73
73870;BME280;64924;42.140;24.762;2023-06-19T04:40:34;99408.84;;;37.35;22.95
73870;BME280;64924;42.140;24.762;2023-06-19T04:43:01;99427.22;;;37.44;22.83
73870;BME280;64924;42.140;24.762;2023-06-19T04:45:28;99428.03;;;37.45;22.52
73870;BME280;64924;42.140;24.762;2023-06-19T04:47:53;99397.16;;;37.40;22.62
73870;BME280;64924;42.140;24.762;2023-06-19T04:50:19;99434.84;;;37.67;22.68
73870;BME280;64924;42.140;24.762;2023-06-19T04:52:45;99429.38;;;38.11;22.04
73870;BME280;64924;42.140;24.762;2023-06-19T04:55:10;99428.00;;;38.61;21.45
73870;BME280;64924;42.140;24.762;2023-06-19T04:57:36;99421.00;;;38.92;21.30
73870;BME280;64924;42.140;24.762;2023-06-19T05:00:04;99430.03;;;39.05;20.86
73870;BME280;64924;42.140;24.762;2023-06-19T05:02:31;99433.19;;;39.44;20.50
73870;BME280;64924;42.140;24.762;2023-06-19T05:04:56;99423.78;;;39.91;20.21
73870;BME280;64924;42.140;24.762;2023-06-19T05:07:22;99433.66;;;40.08;19.53
73870;BME280;64924;42.140;24.762;2023-06-19T05:09:48;99419.63;;;39.78;20.05
73870;BME280;64924;42.140;24.762;2023-06-19T05:12:13;99425.72;;;39.76;20.14
73870;BME280;64924;42.140;24.762;2023-06-19T05:14:39;99423.69;;;39.81;19.89
73870;BME280;64924;42.140;24.762;2023-06-19T05:17:05;99429.69;;;40.34;19.38
73870;BME280;64924;42.140;24.762;2023-06-19T05:19:31;99433.50;;;40.77;18.87
73870;BME280;64924;42.140;24.762;2023-06-19T05:21:56;99422.53;;;41.07;18.97
73870;BME280;64924;42.140;24.762;2023-06-19T05:24:22;99396.06;;;40.82;18.48
73870;BME280;64924;42.140;24.762;2023-06-19T05:26:47;99419.25;;;41.05;18.39
73870;BME280;64924;42.140;24.762;2023-06-19T05:29:13;99425.38;;;41.39;18.44
73870;BME280;64924;42.140;24.762;2023-06-19T05:31:38;99438.41;;;41.12;18.72
73870;BME280;64924;42.140;24.762;2023-06-19T05:34:04;99431.91;;;41.29;18.34
73870;BME280;64924;42.140;24.762;2023-06-19T05:36:29;99433.53;;;41.30;18.51
73870;BME280;64924;42.140;24.762;2023-06-19T05:38:55;99436.78;;;41.57;17.86
73870;BME280;64924;42.140;24.762;2023-06-19T05:41:21;99433.47;;;41.84;17.70
73870;BME280;64924;42.140;24.762;2023-06-19T05:43:47;99436.72;;;41.93;17.76
73870;BME280;64924;42.140;24.762;2023-06-19T05:46:12;99436.66;;;42.00;17.90
73870;BME280;64924;42.140;24.762;2023-06-19T05:48:38;99432.41;;;42.51;17.49
73870;BME280;64924;42.140;24.762;2023-06-19T05:51:03;99437.72;;;42.52;16.89
73870;BME280;64924;42.140;24.762;2023-06-19T05:53:29;99434.47;;;42.50;17.69
73870;BME280;64924;42.140;24.762;2023-06-19T05:55:56;99449.28;;;43.00;16.90
73870;BME280;64924;42.140;24.762;2023-06-19T05:58:21;99442.72;;;43.03;16.87
73870;BME280;64924;42.140;24.762;2023-06-19T06:00:49;99448.31;;;43.18;16.88
73870;BME280;64924;42.140;24.762;2023-06-19T06:03:14;99418.72;;;42.87;17.12
73870;BME280;64924;42.140;24.762;2023-06-19T06:05:40;99417.91;;;42.86;16.45
73870;BME280;64924;42.140;24.762;2023-06-19T06:08:05;99434.22;;;42.93;16.59
73870;BME280;64924;42.140;24.762;2023-06-19T06:10:32;99437.84;;;43.00;17.08
73870;BME280;64924;42.140;24.762;2023-06-19T06:12:58;99455.91;;;42.87;16.94
73870;BME280;64924;42.140;24.762;2023-06-19T06:15:23;99446.13;;;42.84;17.14
73870;BME280;64924;42.140;24.762;2023-06-19T06:17:49;99439.94;;;42.93;16.78
73870;BME280;64924;42.140;24.762;2023-06-19T06:20:14;99445.38;;;43.32;16.10
73870;BME280;64924;42.140;24.762;2023-06-19T06:22:41;99450.75;;;43.67;15.78
73870;BME280;64924;42.140;24.762;2023-06-19T06:25:07;99451.59;;;44.06;15.51
73870;BME280;64924;42.140;24.762;2023-06-19T06:27:33;99408.13;;;43.77;15.73
73870;BME280;64924;42.140;24.762;2023-06-19T06:29:58;99443.56;;;44.24;15.30
73870;BME280;64924;42.140;24.762;2023-06-19T06:32:24;99439.03;;;44.26;15.24
73870;BME280;64924;42.140;24.762;2023-06-19T06:34:49;99442.53;;;44.45;15.08
73870;BME280;64924;42.140;24.762;2023-06-19T06:37:15;99443.72;;;44.13;15.57
73870;BME280;64924;42.140;24.762;2023-06-19T06:39:42;99442.63;;;43.62;15.16
73870;BME280;64924;42.140;24.762;2023-06-19T06:42:08;99433.06;;;43.80;15.36
73870;BME280;64924;42.140;24.762;2023-06-19T06:44:33;99445.16;;;44.28;15.46
73870;BME280;64924;42.140;24.762;2023-06-19T06:46:59;99438.91;;;44.67;15.01
73870;BME280;64924;42.140;24.762;2023-06-19T06:49:24;99444.34;;;45.39;14.46
73870;BME280;64924;42.140;24.762;2023-06-19T06:51:49;99420.50;;;45.42;14.17
73870;BME280;64924;42.140;24.762;2023-06-19T06:54:15;99412.13;;;45.75;13.81
73870;BME280;64924;42.140;24.762;2023-06-19T06:56:40;99427.06;;;45.43;13.90
73870;BME280;64924;42.140;24.762;2023-06-19T06:59:06;99441.13;;;45.60;14.14
73870;BME280;64924;42.140;24.762;2023-06-19T07:01:31;99455.91;;;45.59;14.07
73870;BME280;64924;42.140;24.762;2023-06-19T07:03:57;99445.53;;;45.42;14.30
73870;BME280;64924;42.140;24.762;2023-06-19T07:06:22;99453.69;;;45.43;14.40
73870;BME280;64924;42.140;24.762;2023-06-19T07:08:48;99449.84;;;44.76;14.54
73870;BME280;64924;42.140;24.762;2023-06-19T07:11:14;99451.78;;;45.10;14.51
73870;BME280;64924;42.140;24.762;2023-06-19T07:13:39;99447.34;;;45.05;14.87
73870;BME280;64924;42.140;24.762;2023-06-19T07:16:07;99457.00;;;45.18;14.27
73870;BME280;64924;42.140;24.762;2023-06-19T07:18:32;99417.97;;;45.24;14.19
73870;BME280;64924;42.140;24.762;2023-06-19T07:21:00;99420.88;;;45.68;13.65
73870;BME280;64924;42.140;24.762;2023-06-19T07:23:26;99452.31;;;45.75;13.79
73870;BME280;64924;42.140;24.762;2023-06-19T07:25:52;99426.81;;;44.83;14.53
73870;BME280;64924;42.140;24.762;2023-06-19T07:28:17;99449.25;;;45.66;13.75
73870;BME280;64924;42.140;24.762;2023-06-19T07:30:43;99457.75;;;45.69;13.61
73870;BME280;64924;42.140;24.762;2023-06-19T07:33:09;99455.34;;;45.21;13.99
73870;BME280;64924;42.140;24.762;2023-06-19T07:35:35;99453.75;;;45.40;13.92
73870;BME280;64924;42.140;24.762;2023-06-19T07:38:00;99448.91;;;45.37;13.92
73870;BME280;64924;42.140;24.762;2023-06-19T07:40:26;99438.81;;;45.02;14.53
73870;BME280;64924;42.140;24.762;2023-06-19T07:42:51;99446.59;;;45.28;14.17
73870;BME280;64924;42.140;24.762;2023-06-19T07:45:17;99452.81;;;44.69;14.30
73870;BME280;64924;42.140;24.762;2023-06-19T07:47:42;99459.78;;;44.68;14.28
73870;BME280;64924;42.140;24.762;2023-06-19T07:50:08;99462.44;;;44.55;13.90
73870;BME280;64924;42.140;24.762;2023-06-19T07:52:34;99456.25;;;44.57;14.66
73870;BME280;64924;42.140;24.762;2023-06-19T07:54:59;99454.06;;;44.04;14.50
73870;BME280;64924;42.140;24.762;2023-06-19T07:57:25;99454.06;;;44.00;14.51
73870;BME280;64924;42.140;24.762;2023-06-19T07:59:54;99427.06;;;44.01;14.81
73870;BME280;64924;42.140;24.762;2023-06-19T08:02:19;99455.66;;;44.08;14.94
73870;BME280;64924;42.140;24.762;2023-06-19T08:04:46;99462.16;;;44.73;13.95
73870;BME280;64924;42.140;24.762;2023-06-19T08:07:12;99464.28;;;44.69;14.51
73870;BME280;64924;42.140;24.762;2023-06-19T08:09:37;99455.19;;;44.74;14.20
73870;BME280;64924;42.140;24.762;2023-06-19T08:12:03;99455.25;;;44.71;14.13
73870;BME280;64924;42.140;24.762;2023-06-19T08:14:29;99448.09;;;44.55;13.95
73870;BME280;64924;42.140;24.762;2023-06-19T08:16:55;99456.84;;;44.45;14.65
73870;BME280;64924;42.140;24.762;2023-06-19T08:19:20;99467.22;;;44.31;14.70
73870;BME280;64924;42.140;24.762;2023-06-19T08:21:46;99444.59;;;44.10;14.86
73870;BME280;64924;42.140;24.762;2023-06-19T08:24:11;99395.94;;;43.28;14.95
73870;BME280;64924;42.140;24.762;2023-06-19T08:26:37;99459.44;;;43.53;15.17
73870;BME280;64924;42.140;24.762;2023-06-19T08:29:02;99447.47;;;42.58;15.85
73870;BME280;64924;42.140;24.762;2023-06-19T08:31:28;99456.91;;;42.52;16.23
73870;BME280;64924;42.140;24.762;2023-06-19T08:33:54;99447.56;;;42.44;15.98
73870;BME280;64924;42.140;24.762;2023-06-19T08:36:20;99455.94;;;42.83;16.37
73870;BME280;64924;42.140;24.762;2023-06-19T08:38:45;99458.91;;;43.21;15.75
73870;BME280;64924;42.140;24.762;2023-06-19T08:41:15;99458.34;;;42.88;15.25
73870;BME280;64924;42.140;24.762;2023-06-19T08:43:41;99463.38;;;42.63;15.30
73870;BME280;64924;42.140;24.762;2023-06-19T08:46:17;99426.13;;;41.93;16.01
73870;BME280;64924;42.140;24.762;2023-06-19T08:48:44;99466.94;;;41.65;16.40
73870;BME280;64924;42.140;24.762;2023-06-19T08:51:11;99464.53;;;41.21;17.17
73870;BME280;64924;42.140;24.762;2023-06-19T08:53:47;99464.34;;;40.61;17.17
73870;BME280;64924;42.140;24.762;2023-06-19T08:56:13;99456.41;;;40.04;17.64
73870;BME280;64924;42.140;24.762;2023-06-19T08:58:39;99472.44;;;39.68;18.38
73870;BME280;64924;42.140;24.762;2023-06-19T09:01:04;99459.38;;;39.16;18.56
73870;BME280;64924;42.140;24.762;2023-06-19T09:03:30;99463.94;;;38.50;18.79
73870;BME280;64924;42.140;24.762;2023-06-19T09:05:55;99447.88;;;38.31;19.13
73870;BME280;64924;42.140;24.762;2023-06-19T09:08:22;99454.91;;;38.11;19.17
73870;BME280;64924;42.140;24.762;2023-06-19T09:10:58;99459.22;;;37.71;19.91
73870;BME280;64924;42.140;24.762;2023-06-19T09:13:24;99450.72;;;36.99;20.52
73870;BME280;64924;42.140;24.762;2023-06-19T09:16:02;99451.47;;;36.73;21.17
73870;BME280;64924;42.140;24.762;2023-06-19T09:18:41;99440.06;;;36.50;21.55
73870;BME280;64924;42.140;24.762;2023-06-19T09:21:14;99443.50;;;36.21;21.57
73870;BME280;64924;42.140;24.762;2023-06-19T09:23:39;99450.47;;;35.89;22.38
73870;BME280;64924;42.140;24.762;2023-06-19T09:26:05;99450.13;;;35.90;22.38
73870;BME280;64924;42.140;24.762;2023-06-19T09:28:31;99440.72;;;35.86;22.16
73870;BME280;64924;42.140;24.762;2023-06-19T09:31:02;99444.31;;;36.02;22.25
73870;BME280;64924;42.140;24.762;2023-06-19T09:33:32;99444.22;;;35.79;22.51
73870;BME280;64924;42.140;24.762;2023-06-19T09:35:59;99439.19;;;35.73;22.47
73870;BME280;64924;42.140;24.762;2023-06-19T09:38:28;99434.91;;;35.79;21.91
73870;BME280;64924;42.140;24.762;2023-06-19T09:40:55;99436.91;;;35.78;21.97
73870;BME280;64924;42.140;24.762;2023-06-19T09:43:33;99435.53;;;35.88;22.09
73870;BME280;64924;42.140;24.762;2023-06-19T09:45:59;99426.84;;;35.62;21.88
73870;BME280;64924;42.140;24.762;2023-06-19T09:48:30;99432.69;;;35.53;22.01
73870;BME280;64924;42.140;24.762;2023-06-19T09:53:34;99423.75;;;34.72;22.16
73870;BME280;64924;42.140;24.762;2023-06-19T09:56:00;99413.97;;;34.54;21.99
73870;BME280;64924;42.140;24.762;2023-06-19T09:58:26;99433.94;;;34.77;22.94
73870;BME280;64924;42.140;24.762;2023-06-19T10:00:54;99430.69;;;34.91;22.90
73870;BME280;64924;42.140;24.762;2023-06-19T10:03:20;99424.50;;;35.01;22.72
73870;BME280;64924;42.140;24.762;2023-06-19T10:05:46;99414.50;;;35.03;23.05
73870;BME280;64924;42.140;24.762;2023-06-19T10:08:12;99385.16;;;34.92;22.46
73870;BME280;64924;42.140;24.762;2023-06-19T10:10:46;99414.94;;;35.37;22.37
73870;BME280;64924;42.140;24.762;2023-06-19T10:13:14;99410.94;;;35.22;22.81
73870;BME280;64924;42.140;24.762;2023-06-19T10:15:44;99404.66;;;34.97;22.88
73870;BME280;64924;42.140;24.762;2023-06-19T10:18:16;99409.63;;;34.72;23.35
73870;BME280;64924;42.140;24.762;2023-06-19T10:20:43;99399.22;;;34.61;23.39
73870;BME280;64924;42.140;24.762;2023-06-19T10:25:40;99379.38;;;34.57;23.06
73870;BME280;64924;42.140;24.762;2023-06-19T10:28:30;99412.78;;;34.83;23.48
73870;BME280;64924;42.140;24.762;2023-06-19T10:30:57;99405.81;;;34.96;22.68
73870;BME280;64924;42.140;24.762;2023-06-19T10:33:31;99357.38;;;34.94;22.62
73870;BME280;64924;42.140;24.762;2023-06-19T10:36:20;99408.94;;;35.23;22.64
73870;BME280;64924;42.140;24.762;2023-06-19T10:38:48;99404.66;;;35.13;21.67
73870;BME280;64924;42.140;24.762;2023-06-19T10:41:25;99393.34;;;34.97;21.92
73870;BME280;64924;42.140;24.762;2023-06-19T10:44:01;99353.47;;;34.51;22.69
73870;BME280;64924;42.140;24.762;2023-06-19T10:46:33;99393.16;;;34.74;22.82
73870;BME280;64924;42.140;24.762;2023-06-19T10:49:02;99372.75;;;34.49;22.65
73870;BME280;64924;42.140;24.762;2023-06-19T10:51:30;99394.66;;;34.56;22.64
73870;BME280;64924;42.140;24.762;2023-06-19T10:53:57;99380.81;;;34.35;22.81
73870;BME280;64924;42.140;24.762;2023-06-19T10:56:23;99383.38;;;34.40;22.89
73870;BME280;64924;42.140;24.762;2023-06-19T10:59:03;99363.09;;;34.50;23.19
73870;BME280;64924;42.140;24.762;2023-06-19T11:01:37;99380.75;;;34.63;23.23
73870;BME280;64924;42.140;24.762;2023-06-19T11:04:11;99380.28;;;34.45;23.52
73870;BME280;64924;42.140;24.762;2023-06-19T11:06:38;99349.16;;;34.58;23.42
73870;BME280;64924;42.140;24.762;2023-06-19T11:09:05;99371.13;;;34.96;23.50
73870;BME280;64924;42.140;24.762;2023-06-19T11:11:38;99365.84;;;34.94;23.31
73870;BME280;64924;42.140;24.762;2023-06-19T11:14:04;99349.97;;;35.05;23.82
73870;BME280;64924;42.140;24.762;2023-06-19T11:16:30;99367.38;;;35.07;23.26
73870;BME280;64924;42.140;24.762;2023-06-19T11:18:56;99362.50;;;34.89;22.78
73870;BME280;64924;42.140;24.762;2023-06-19T11:21:32;99363.81;;;35.10;23.14
73870;BME280;64924;42.140;24.762;2023-06-19T11:24:00;99325.03;;;34.92;23.08
73870;BME280;64924;42.140;24.762;2023-06-19T11:26:26;99358.19;;;35.10;22.90
73870;BME280;64924;42.140;24.762;2023-06-19T11:28:51;99358.25;;;35.30;22.90
73870;BME280;64924;42.140;24.762;2023-06-19T11:31:17;99347.47;;;35.35;22.78
73870;BME280;64924;42.140;24.762;2023-06-19T11:33:42;99352.94;;;35.44;22.41
73870;BME280;64924;42.140;24.762;2023-06-19T11:36:08;99357.09;;;35.50;22.78
73870;BME280;64924;42.140;24.762;2023-06-19T11:38:35;99330.41;;;35.47;22.01
73870;BME280;64924;42.140;24.762;2023-06-19T11:41:01;99335.59;;;35.45;21.88
73870;BME280;64924;42.140;24.762;2023-06-19T11:43:31;99351.69;;;35.61;21.30
73870;BME280;64924;42.140;24.762;2023-06-19T11:46:06;99349.50;;;35.35;20.96
73870;BME280;64924;42.140;24.762;2023-06-19T11:48:36;99332.19;;;35.21;21.17
73870;BME280;64924;42.140;24.762;2023-06-19T11:51:02;99342.78;;;35.59;21.43
73870;BME280;64924;42.140;24.762;2023-06-19T11:53:27;99285.25;;;35.51;20.61
73870;BME280;64924;42.140;24.762;2023-06-19T11:55:53;99333.06;;;35.95;20.79
73870;BME280;64924;42.140;24.762;2023-06-19T11:58:19;99331.31;;;36.09;21.38
73870;BME280;64924;42.140;24.762;2023-06-19T12:00:47;99302.63;;;35.88;21.47
73870;BME280;64924;42.140;24.762;2023-06-19T12:03:13;99321.59;;;35.88;21.46
73870;BME280;64924;42.140;24.762;2023-06-19T12:05:39;99326.47;;;36.10;21.54
73870;BME280;64924;42.140;24.762;2023-06-19T12:08:05;99329.88;;;36.38;20.81
73870;BME280;64924;42.140;24.762;2023-06-19T12:10:32;99286.31;;;35.81;21.36
73870;BME280;64924;42.140;24.762;2023-06-19T12:12:58;99322.47;;;35.92;21.20
73870;BME280;64924;42.140;24.762;2023-06-19T12:15:24;99331.47;;;35.97;21.50
73870;BME280;64924;42.140;24.762;2023-06-19T12:17:50;99318.28;;;36.05;21.20
73870;BME280;64924;42.140;24.762;2023-06-19T12:20:16;99312.63;;;36.05;21.35
73870;BME280;64924;42.140;24.762;2023-06-19T12:22:42;99309.69;;;35.98;21.46
73870;BME280;64924;42.140;24.762;2023-06-19T12:25:08;99306.69;;;35.91;21.48
73870;BME280;64924;42.140;24.762;2023-06-19T12:27:33;99275.22;;;35.54;21.29
73870;BME280;64924;42.140;24.762;2023-06-19T12:29:59;99284.94;;;35.75;20.81
73870;BME280;64924;42.140;24.762;2023-06-19T12:32:25;99304.31;;;35.93;20.64
73870;BME280;64924;42.140;24.762;2023-06-19T12:34:51;99292.72;;;35.98;20.05
73870;BME280;64924;42.140;24.762;2023-06-19T12:37:22;99290.94;;;35.90;20.42
73870;BME280;64924;42.140;24.762;2023-06-19T12:39:51;99297.69;;;35.85;20.71
73870;BME280;64924;42.140;24.762;2023-06-19T12:42:17;99291.34;;;35.72;20.59
73870;BME280;64924;42.140;24.762;2023-06-19T12:44:43;99290.00;;;35.47;21.00
73870;BME280;64924;42.140;24.762;2023-06-19T12:47:11;99293.44;;;35.56;20.80
73870;BME280;64924;42.140;24.762;2023-06-19T12:49:37;99291.88;;;35.39;20.51
73870;BME280;64924;42.140;24.762;2023-06-19T12:52:02;99259.97;;;35.39;20.97
73870;BME280;64924;42.140;24.762;2023-06-19T12:54:28;99291.25;;;35.69;20.55
73870;BME280;64924;42.140;24.762;2023-06-19T12:56:54;99286.59;;;35.76;20.04
73870;BME280;64924;42.140;24.762;2023-06-19T12:59:19;99285.88;;;35.79;20.50